Gibraltar, Gibraltar

9:54 AM CET on February 07, 2016 (GMT +0100)
Colegio San Pedro | | Change Station
CLOSE
Current Station
Personal Weather Station
Location: La Linea De La Concepción, ANDALUCíA
Elevation: 23 ft
Nearby Weather Stations

Elev 23 ft 36.17 °N, 5.35 °W | Updated 27 seconds ago

Rain
Rain Mist
62.4 °F
Feels Like 62.4 °F
N
13.9
Wind Variable Wind from WNW
Gusts 15.0 mph

Today
High -- | Low -- °F
--% Chance of Precip.
Yesterday
High -- | Low -- °F
Precip. -- in
Pressure 30.30 in
Visibility 0.9 miles
Clouds Scattered Clouds 1000 ft
Mostly Cloudy 1600 ft
Dew Point 62 °F
Humidity 97%
Rainfall 0.05 in
Snow Depth Not available.
8:17 AM 6:53 PM
Waning Crescent, 2% visible
METAR GMTT 070830Z 30019KT 1500 RA BR SCT010 BKN016 15/13 Q1026 NOSIG
Pressure 30.30 in
Visibility 0.9 miles
Clouds Scattered Clouds 1000 ft
Mostly Cloudy 1600 ft
Dew Point 62 °F
Humidity 97%
Rainfall 0.05 in
Snow Depth Not available.
8:17 AM 6:53 PM
Waning Crescent, 2% visible
METAR GMTT 070830Z 30019KT 1500 RA BR SCT010 BKN016 15/13 Q1026 NOSIG

10-Day Weather Forecast

Almanac

Astronomy

Feb. 07, 2016 Rise Set
Actual Time
Civil Twilight
Nautical Twilight
Astronomical Twilight
Moon
Length of Visible Light
Length of Day
Tomorrow will be .
, % of the Moon is Illuminated

Today's Extremes

Country Highs Country Lows

Community

WunderPhotos

Upload Photos

1,891,171 photos uploaded!

WunderBlog® & News

Nearby

Air Quality

  Air Quality AQ Index Pollutant
Not available.

Snow Depth

Station Depth Elevation

Earthquake Activity

City Distance Mag. Time & Date
Minimum magnitude displayed is 2.5.

Coastal Water Temperatures

Place Temperature

Stations

Nearby Weather Stations

Station Location Temp. Windchill Dew Point Humidity Wind Precip. Elev Updated Type